Time;durP1;ratioP1;P1;durP2;ratioP2;P2;SDS_P1;SDS_P2;PMS_P1;PMS_P2;Temp;Humidity;BMP_temperature;BMP_pressure;BME280_temperature;BME280_humidity;BME280_pressure;Samples;Min_cycle;Max_cycle;Signal;HPM_P1;HPM_P2
2023/10/05 00:04:04;;;;;;;14.20;4.13;;;12.90;99.90;;;;;;5084608;28;20435;-74
2023/10/05 00:06:53;;;;;;;14.50;4.82;;;13.00;99.90;;;;;;5066991;28;20069;-74
2023/10/05 00:09:41;;;;;;;16.63;4.28;;;12.90;99.90;;;;;;5074852;28;20171;-74
2023/10/05 00:12:27;;;;;;;9.17;3.67;;;13.00;99.90;;;;;;5095949;28;20136;-74
2023/10/05 00:15:14;;;;;;;13.30;4.70;;;13.00;99.90;;;;;;5065936;28;20039;-76
2023/10/05 00:18:03;;;;;;;11.60;4.38;;;12.90;99.90;;;;;;5094116;28;20114;-77
2023/10/05 00:20:53;;;;;;;10.73;4.32;;;13.00;99.90;;;;;;5085315;28;20035;-77
2023/10/05 00:23:41;;;;;;;12.98;5.05;;;12.90;99.90;;;;;;5081398;28;20122;-77
2023/10/05 00:26:30;;;;;;;14.32;4.50;;;13.00;99.90;;;;;;5079575;28;20058;-77
2023/10/05 00:29:34;;;;;;;12.48;4.78;;;13.00;99.90;;;;;;5079487;27;20040;-76
2023/10/05 00:32:34;;;;;;;17.67;4.78;;;12.90;99.90;;;;;;5063707;28;20035;-77
2023/10/05 00:35:33;;;;;;;10.43;4.15;;;12.90;99.90;;;;;;5096537;27;20467;-77
2023/10/05 00:38:19;;;;;;;13.80;4.15;;;12.90;99.90;;;;;;5073631;28;20039;-76
2023/10/05 00:41:08;;;;;;;10.68;3.80;;;12.90;99.90;;;;;;5064537;27;20046;-77
2023/10/05 00:43:55;;;;;;;10.85;4.25;;;12.90;99.90;;;;;;5087175;28;20488;-77
2023/10/05 00:46:48;;;;;;;12.05;4.10;;;12.90;99.90;;;;;;5085873;27;20039;-76
2023/10/05 00:49:57;;;;;;;14.45;4.20;;;12.90;99.90;;;;;;5069750;28;20083;-77
2023/10/05 00:52:45;;;;;;;16.30;5.00;;;12.90;99.90;;;;;;5092523;27;20035;-77
2023/10/05 00:55:31;;;;;;;16.45;5.30;;;12.90;99.90;;;;;;5065341;28;20131;-76
2023/10/05 00:58:17;;;;;;;10.52;4.38;;;12.80;99.90;;;;;;5070204;28;20036;-77
2023/10/05 01:01:14;;;;;;;15.25;4.47;;;12.80;99.90;;;;;;5094437;28;20491;-77
2023/10/05 01:06:56;;;;;;;15.15;4.72;;;12.80;99.90;;;;;;5090189;27;20380;-77
2023/10/05 01:12:43;;;;;;;13.93;4.43;;;12.80;99.90;;;;;;5080095;28;20043;-77
2023/10/05 01:15:33;;;;;;;12.55;4.63;;;12.80;99.90;;;;;;5079721;28;20127;-77
2023/10/05 01:18:23;;;;;;;15.50;5.30;;;12.80;99.90;;;;;;5073046;27;20050;-77
2023/10/05 01:21:10;;;;;;;14.20;4.57;;;12.80;99.90;;;;;;5069010;28;20353;-77
2023/10/05 01:23:58;;;;;;;12.75;4.28;;;12.80;99.90;;;;;;5075115;27;20109;-77
2023/10/05 01:26:44;;;;;;;14.00;4.57;;;12.80;99.90;;;;;;5083417;28;20075;-77
2023/10/05 01:29:31;;;;;;;12.73;4.70;;;12.90;99.90;;;;;;5068954;27;20490;-77
2023/10/05 01:32:17;;;;;;;16.33;5.00;;;12.90;99.90;;;;;;5065035;27;20483;-77
2023/10/05 01:35:08;;;;;;;10.23;4.03;;;12.90;99.90;;;;;;5095413;28;20050;-76
2023/10/05 01:37:54;;;;;;;13.07;4.55;;;12.90;99.90;;;;;;5073831;27;20553;-77
2023/10/05 01:40:47;;;;;;;12.02;4.30;;;12.90;99.90;;;;;;5060128;28;20048;-77
2023/10/05 01:43:37;;;;;;;12.25;4.72;;;13.00;99.90;;;;;;5076239;27;20198;-77
2023/10/05 01:46:23;;;;;;;14.52;4.82;;;13.00;99.90;;;;;;5085956;28;20085;-77
2023/10/05 01:49:09;;;;;;;11.70;4.72;;;12.90;99.90;;;;;;5086220;27;20104;-77
2023/10/05 01:51:56;;;;;;;12.43;4.53;;;13.00;99.90;;;;;;5090826;27;20104;-76
2023/10/05 01:54:45;;;;;;;13.75;5.35;;;13.00;99.90;;;;;;5082676;28;20051;-77
2023/10/05 01:57:31;;;;;;;14.13;4.93;;;13.00;99.90;;;;;;5071131;27;20044;-77
2023/10/05 02:00:20;;;;;;;18.20;4.90;;;13.00;99.90;;;;;;5075918;28;20111;-77
2023/10/05 02:03:12;;;;;;;14.77;4.43;;;13.00;99.90;;;;;;5069613;27;20073;-77
2023/10/05 02:06:05;;;;;;;13.60;4.88;;;13.00;99.90;;;;;;5080285;28;20051;-77
2023/10/05 02:08:54;;;;;;;11.23;4.35;;;13.00;99.90;;;;;;5084621;27;20130;-77
2023/10/05 02:11:41;;;;;;;;;;;13.00;99.90;;;;;;5066507;28;20039;-77
2023/10/05 02:14:30;;;;;;;20.65;5.43;;;13.10;99.90;;;;;;5107213;27;19916;-77
2023/10/05 02:17:19;;;;;;;12.43;4.82;;;13.10;99.90;;;;;;5062777;27;20031;-77
2023/10/05 02:20:08;;;;;;;20.88;5.32;;;13.10;99.90;;;;;;5089688;28;20054;-77
2023/10/05 02:22:54;;;;;;;13.43;5.75;;;13.10;99.90;;;;;;5098402;27;20070;-77
2023/10/05 02:25:40;;;;;;;14.90;5.40;;;13.10;99.90;;;;;;5078921;28;20036;-77
2023/10/05 02:28:26;;;;;;;14.48;5.10;;;13.10;99.90;;;;;;5066977;28;20145;-77
2023/10/05 02:31:13;;;;;;;13.15;3.97;;;13.10;99.90;;;;;;5062755;27;20081;-77
2023/10/05 02:33:59;;;;;;;16.52;5.75;;;13.10;99.90;;;;;;5080720;28;20055;-77
2023/10/05 02:36:45;;;;;;;17.42;5.85;;;13.10;99.90;;;;;;5099250;27;20035;-77
2023/10/05 02:39:35;;;;;;;16.33;5.00;;;13.10;99.90;;;;;;5086945;28;20036;-77
2023/10/05 02:42:22;;;;;;;11.73;4.90;;;13.20;99.90;;;;;;5089174;27;20039;-77
2023/10/05 02:45:11;;;;;;;14.63;5.63;;;13.10;99.90;;;;;;5063887;28;20043;-77
2023/10/05 02:47:57;;;;;;;18.08;5.43;;;13.10;99.90;;;;;;5077505;28;20040;-77
2023/10/05 02:50:45;;;;;;;12.82;4.72;;;13.10;99.90;;;;;;5079006;27;20103;-77
2023/10/05 02:53:41;;;;;;;13.90;5.20;;;13.10;99.90;;;;;;5066645;28;20544;-77
2023/10/05 02:56:27;;;;;;;13.38;4.93;;;13.10;99.90;;;;;;5073744;27;20066;-77
2023/10/05 02:59:15;;;;;;;18.67;5.15;;;13.20;99.90;;;;;;5070584;28;20036;-77
2023/10/05 03:02:06;;;;;;;15.13;5.00;;;13.10;99.90;;;;;;5079130;27;20463;-77
2023/10/05 03:04:58;;;;;;;16.67;5.55;;;13.10;99.90;;;;;;5078915;28;20074;-76
2023/10/05 03:07:47;;;;;;;15.13;5.47;;;13.20;99.90;;;;;;5077593;28;20040;-77
2023/10/05 03:10:33;;;;;;;16.48;5.20;;;13.20;99.90;;;;;;5062784;27;20040;-77
2023/10/05 03:13:19;;;;;;;14.70;5.90;;;13.20;99.90;;;;;;5082943;28;20035;-77
2023/10/05 03:16:10;;;;;;;15.65;5.22;;;13.20;99.90;;;;;;5071680;27;20132;-77
2023/10/05 03:19:00;;;;;;;17.17;5.80;;;13.20;99.90;;;;;;5074270;28;20109;-77
2023/10/05 03:21:57;;;;;;;13.18;4.88;;;13.20;99.90;;;;;;5085679;27;20122;-77
2023/10/05 03:24:47;;;;;;;14.65;5.15;;;13.20;99.90;;;;;;5074530;28;20147;-77
2023/10/05 03:27:33;;;;;;;15.35;5.28;;;13.20;99.90;;;;;;5095728;28;20119;-77
2023/10/05 03:30:23;;;;;;;16.20;5.28;;;13.20;99.90;;;;;;5075431;28;20070;-77
2023/10/05 03:33:11;;;;;;;16.88;6.20;;;13.20;99.90;;;;;;5066419;28;20044;-77
2023/10/05 03:36:00;;;;;;;16.15;5.13;;;13.30;99.90;;;;;;5083397;28;20040;-77
2023/10/05 03:38:55;;;;;;;13.95;5.18;;;13.20;99.90;;;;;;5073993;28;20369;-76
2023/10/05 03:41:42;;;;;;;14.13;4.72;;;13.30;99.90;;;;;;5073470;28;20035;-77
2023/10/05 03:44:27;;;;;;;15.63;5.00;;;13.20;99.90;;;;;;5082484;28;20043;-77
2023/10/05 03:47:13;;;;;;;15.18;5.10;;;13.20;99.90;;;;;;5067845;27;20047;-76
2023/10/05 03:49:59;;;;;;;16.10;5.43;;;13.30;99.90;;;;;;5062475;28;20360;-77
2023/10/05 03:52:46;;;;;;;13.60;5.32;;;13.30;99.90;;;;;;5080484;28;20051;-77
2023/10/05 03:55:33;;;;;;;15.07;4.97;;;13.30;99.90;;;;;;5084014;28;20035;-77
2023/10/05 03:58:20;;;;;;;16.65;4.82;;;13.30;99.90;;;;;;5070832;28;20491;-77
2023/10/05 04:01:10;;;;;;;16.63;5.25;;;13.30;99.90;;;;;;5066181;28;20040;-77
2023/10/05 04:03:56;;;;;;;13.40;5.15;;;13.30;99.90;;;;;;5080430;28;20440;-76
2023/10/05 04:06:44;;;;;;;19.92;5.22;;;13.40;99.90;;;;;;5081501;28;20092;-76
2023/10/05 04:09:31;;;;;;;12.73;4.50;;;13.40;99.90;;;;;;5063444;27;20035;-77
2023/10/05 04:12:17;;;;;;;13.82;4.95;;;13.40;99.90;;;;;;5085405;28;20431;-77
2023/10/05 04:15:09;;;;;;;15.45;4.57;;;13.40;99.90;;;;;;5085389;27;20175;-76
2023/10/05 04:17:55;;;;;;;14.20;4.60;;;13.40;99.90;;;;;;5097979;28;20130;-76
2023/10/05 04:20:44;;;;;;;14.38;4.20;;;13.40;99.90;;;;;;5081396;27;20036;-76
2023/10/05 04:23:30;;;;;;;11.05;4.28;;;13.40;99.90;;;;;;5066320;28;20047;-77
2023/10/05 04:26:22;;;;;;;12.77;4.82;;;13.40;99.90;;;;;;5081945;28;20403;-77
2023/10/05 04:29:08;;;;;;;11.50;4.53;;;13.40;99.90;;;;;;5076029;27;20130;-76
2023/10/05 04:31:54;;;;;;;11.73;4.35;;;13.40;99.90;;;;;;5087670;28;20036;-76
2023/10/05 04:34:40;;;;;;;16.95;4.78;;;13.40;99.90;;;;;;5088091;27;20062;-76
2023/10/05 04:37:26;;;;;;;13.52;4.38;;;13.40;99.90;;;;;;5096787;28;20126;-77
2023/10/05 04:40:15;;;;;;;12.57;4.82;;;13.50;99.90;;;;;;5097382;28;20122;-76
2023/10/05 04:43:04;;;;;;;15.75;4.55;;;13.40;99.90;;;;;;5061171;27;20086;-77
2023/10/05 04:45:51;;;;;;;14.95;4.50;;;13.40;99.90;;;;;;5081323;28;20044;-77
2023/10/05 04:48:47;;;;;;;15.05;3.88;;;13.40;99.90;;;;;;5075034;27;20071;-77
2023/10/05 04:51:35;;;;;;;16.25;4.65;;;13.40;99.90;;;;;;5087980;28;20047;-77
2023/10/05 04:54:25;;;;;;;14.75;4.03;;;13.40;99.90;;;;;;5088266;27;20062;-77
2023/10/05 04:57:34;;;;;;;12.98;4.10;;;13.40;99.90;;;;;;5067439;28;20074;-77
2023/10/05 05:06:13;;;;;;;13.07;4.18;;;13.30;99.90;;;;;;5103979;27;20035;-77
2023/10/05 05:09:00;;;;;;;11.23;4.00;;;13.30;99.90;;;;;;5085169;28;20031;-77
2023/10/05 05:11:47;;;;;;;14.05;3.97;;;13.30;99.90;;;;;;5098714;27;20044;-78
2023/10/05 05:14:41;;;;;;;15.20;3.60;;;13.30;99.90;;;;;;5080787;28;20570;-76
2023/10/05 05:17:28;;;;;;;12.38;4.00;;;13.30;99.90;;;;;;5083348;28;20044;-77
2023/10/05 05:20:15;;;;;;;12.57;3.80;;;13.30;99.90;;;;;;5090959;27;20042;-77
2023/10/05 05:23:04;;;;;;;12.30;4.20;;;13.20;99.90;;;;;;5067023;28;20040;-77
2023/10/05 05:25:54;;;;;;;11.15;4.38;;;13.30;99.90;;;;;;5084879;28;20055;-77
2023/10/05 05:28:43;;;;;;;9.82;3.22;;;13.30;99.90;;;;;;5084991;28;20083;-77
2023/10/05 05:31:30;;;;;;;10.05;3.35;;;13.20;99.90;;;;;;5057148;28;20143;-77
2023/10/05 05:34:16;;;;;;;13.05;4.03;;;13.30;99.90;;;;;;5066247;28;20040;-77
2023/10/05 05:37:04;;;;;;;12.82;3.88;;;13.30;99.90;;;;;;5065879;28;20338;-77
2023/10/05 05:39:53;;;;;;;15.70;4.25;;;13.30;99.90;;;;;;5062195;28;20055;-77
2023/10/05 05:42:40;;;;;;;13.57;4.05;;;13.20;99.90;;;;;;5073425;28;20047;-77
2023/10/05 05:45:25;;;;;;;12.23;3.90;;;13.20;99.90;;;;;;5074730;28;20047;-77
2023/10/05 05:48:14;;;;;;;14.82;4.60;;;13.20;99.90;;;;;;5080735;28;20053;-77
2023/10/05 05:51:05;;;;;;;9.75;3.60;;;13.20;99.90;;;;;;5053833;28;20495;-77
2023/10/05 05:53:52;;;;;;;12.90;3.92;;;13.10;99.90;;;;;;5071916;28;20365;-77
2023/10/05 05:56:38;;;;;;;13.60;4.10;;;13.20;99.90;;;;;;5068141;28;20383;-77
2023/10/05 05:59:24;;;;;;;13.10;4.82;;;13.10;99.90;;;;;;5061206;28;20047;-77
2023/10/05 06:02:10;;;;;;;11.70;3.90;;;13.20;99.90;;;;;;5070612;28;20036;-77
2023/10/05 06:04:57;;;;;;;11.73;4.28;;;13.10;99.90;;;;;;5081978;28;20412;-77
2023/10/05 06:07:43;;;;;;;12.13;4.07;;;13.10;99.90;;;;;;5078399;28;20071;-77
2023/10/05 06:10:34;;;;;;;12.43;5.13;;;13.10;99.90;;;;;;5064444;28;20104;-77
2023/10/05 06:13:20;;;;;;;10.05;4.10;;;13.10;99.90;;;;;;5051775;28;20066;-77
2023/10/05 06:16:09;;;;;;;11.20;4.40;;;13.10;99.90;;;;;;5086240;28;20165;-77
2023/10/05 06:18:55;;;;;;;12.30;4.97;;;13.10;99.90;;;;;;5060215;28;20307;-76
2023/10/05 06:21:42;;;;;;;14.13;4.75;;;13.10;99.90;;;;;;5069869;28;20042;-77
2023/10/05 06:24:28;;;;;;;12.32;4.30;;;13.10;99.90;;;;;;5070020;28;20040;-76
2023/10/05 06:27:14;;;;;;;11.25;5.03;;;13.10;99.90;;;;;;5070677;28;20954;-77
2023/10/05 06:29:59;;;;;;;10.60;5.10;;;13.20;99.90;;;;;;5082954;28;20047;-77
2023/10/05 06:32:46;;;;;;;12.18;4.18;;;13.20;99.90;;;;;;5070661;27;20107;-77
2023/10/05 06:35:32;;;;;;;8.13;4.55;;;13.20;99.90;;;;;;5075065;28;20051;-77
2023/10/05 06:38:18;;;;;;;12.35;4.22;;;13.20;99.90;;;;;;5083842;28;20443;-77
2023/10/05 06:41:04;;;;;;;9.00;4.25;;;13.20;99.90;;;;;;5090920;27;20066;-77
2023/10/05 06:43:50;;;;;;;9.82;4.82;;;13.20;99.90;;;;;;5080944;28;20101;-77
2023/10/05 06:46:37;;;;;;;9.32;3.97;;;13.20;99.90;;;;;;5083797;27;20043;-77
2023/10/05 06:49:23;;;;;;;12.40;3.95;;;13.30;99.90;;;;;;5077215;28;20751;-77
2023/10/05 06:52:09;;;;;;;16.88;4.38;;;13.30;99.90;;;;;;5071636;28;20043;-77
2023/10/05 06:54:55;;;;;;;16.02;4.03;;;13.30;99.90;;;;;;5064999;28;20077;-77
2023/10/05 06:57:44;;;;;;;10.13;4.30;;;13.30;99.90;;;;;;5080049;28;20490;-77
2023/10/05 07:00:30;;;;;;;9.65;4.47;;;13.40;99.90;;;;;;5084722;27;20041;-77
2023/10/05 07:03:16;;;;;;;12.65;4.65;;;13.40;99.90;;;;;;5080288;28;20067;-77
2023/10/05 07:06:04;;;;;;;11.85;4.78;;;13.40;99.90;;;;;;5072680;27;20047;-77
2023/10/05 07:08:52;;;;;;;9.98;3.40;;;13.50;99.90;;;;;;5078765;28;20108;-77
2023/10/05 07:11:38;;;;;;;12.77;4.28;;;13.50;99.90;;;;;;5079877;28;20039;-77
2023/10/05 07:14:24;;;;;;;12.20;3.75;;;13.60;99.90;;;;;;5070516;27;20039;-77
2023/10/05 07:17:10;;;;;;;9.15;3.65;;;13.60;99.90;;;;;;5082504;28;20043;-75
2023/10/05 07:19:57;;;;;;;13.88;3.88;;;13.70;99.90;;;;;;5082063;27;20467;-74
2023/10/05 07:22:44;;;;;;;9.75;3.45;;;13.70;99.90;;;;;;5083706;28;20049;-75
2023/10/05 07:25:30;;;;;;;9.20;3.17;;;13.80;99.90;;;;;;5085898;28;20118;-74
2023/10/05 07:28:16;;;;;;;8.98;3.63;;;13.90;99.90;;;;;;5082645;27;20051;-74
2023/10/05 07:31:05;;;;;;;12.32;3.33;;;13.90;99.90;;;;;;5097553;28;20126;-75
2023/10/05 07:33:51;;;;;;;8.27;2.85;;;14.00;99.90;;;;;;5085606;28;20039;-75
2023/10/05 07:36:36;;;;;;;9.77;3.22;;;14.00;99.90;;;;;;5069786;28;20036;-74
2023/10/05 07:39:24;;;;;;;8.93;3.17;;;14.00;99.90;;;;;;5070816;27;20422;-75
2023/10/05 07:42:10;;;;;;;10.65;3.80;;;14.10;99.90;;;;;;5057665;28;20174;-75
2023/10/05 07:44:57;;;;;;;13.43;3.47;;;14.20;99.90;;;;;;5090649;28;20118;-75
2023/10/05 07:47:43;;;;;;;8.00;3.60;;;14.20;99.90;;;;;;5075440;28;20039;-74
2023/10/05 07:50:29;;;;;;;8.68;3.00;;;14.30;99.90;;;;;;5096129;28;20082;-74
2023/10/05 07:53:15;;;;;;;8.18;3.63;;;14.20;99.90;;;;;;5068591;28;20044;-75
2023/10/05 07:56:02;;;;;;;7.88;3.70;;;14.30;99.90;;;;;;5079084;28;20043;-74
2023/10/05 07:58:48;;;;;;;10.82;4.60;;;14.40;99.90;;;;;;5077962;28;20035;-75
2023/10/05 08:01:34;;;;;;;12.90;4.78;;;14.40;99.90;;;;;;5092583;28;20413;-75
2023/10/05 08:04:22;;;;;;;8.13;4.93;;;14.40;99.90;;;;;;5064211;28;20036;-75
2023/10/05 08:07:08;;;;;;;13.38;5.38;;;14.50;99.90;;;;;;5098351;28;20039;-75
2023/10/05 08:09:55;;;;;;;13.70;5.53;;;14.50;99.90;;;;;;5076287;28;20040;-75
2023/10/05 08:12:42;;;;;;;12.60;5.32;;;14.50;99.90;;;;;;5095166;28;20594;-74
2023/10/05 08:15:28;;;;;;;13.13;5.10;;;14.60;99.90;;;;;;5088058;28;20051;-75
2023/10/05 08:18:13;;;;;;;11.77;5.85;;;14.60;99.90;;;;;;5079321;28;20040;-75
2023/10/05 08:21:00;;;;;;;12.15;5.28;;;14.60;99.90;;;;;;5098386;28;20352;-75
2023/10/05 08:23:45;;;;;;;11.40;5.95;;;14.70;99.90;;;;;;5086008;28;20035;-75
2023/10/05 08:26:31;;;;;;;11.82;5.68;;;14.70;99.90;;;;;;5091183;28;20472;-74
2023/10/05 08:29:18;;;;;;;13.57;5.53;;;14.70;99.90;;;;;;5075485;28;20039;-75
2023/10/05 08:32:06;;;;;;;12.07;5.35;;;14.80;99.90;;;;;;5079361;28;20035;-74
2023/10/05 08:34:52;;;;;;;16.67;5.93;;;14.80;99.90;;;;;;5083480;28;20104;-75
2023/10/05 08:37:42;;;;;;;11.48;5.82;;;14.80;99.90;;;;;;5095905;28;20120;-74
2023/10/05 08:40:41;;;;;;;11.70;5.70;;;14.90;99.90;;;;;;5084500;28;20036;-75
2023/10/05 08:43:27;;;;;;;13.38;6.05;;;14.90;99.90;;;;;;5097255;28;20360;-75
2023/10/05 08:46:14;;;;;;;10.30;5.13;;;14.90;99.90;;;;;;5070094;28;20241;-75
2023/10/05 08:49:07;;;;;;;14.38;6.35;;;14.90;99.90;;;;;;5074203;28;20032;-74
2023/10/05 08:51:53;;;;;;;15.88;5.78;;;14.90;99.90;;;;;;5097196;28;20054;-73
2023/10/05 08:54:40;;;;;;;14.35;6.03;;;15.00;99.90;;;;;;5063663;27;20361;-74
2023/10/05 08:57:26;;;;;;;10.25;5.53;;;15.00;99.90;;;;;;5099364;28;20540;-74
2023/10/05 09:00:14;;;;;;;8.90;5.40;;;15.00;99.90;;;;;;5087451;27;20035;-74
2023/10/05 09:03:02;;;;;;;11.93;5.20;;;15.10;99.90;;;;;;5068379;28;20469;-75
2023/10/05 09:06:12;;;;;;;11.15;5.35;;;15.10;99.90;;;;;;5085582;27;20070;-74
2023/10/05 09:11:50;;;;;;;14.02;5.10;;;15.20;99.90;;;;;;5087858;27;20062;-74
2023/10/05 09:14:38;;;;;;;12.60;4.68;;;15.20;99.90;;;;;;5093342;28;20480;-74
2023/10/05 09:17:24;;;;;;;15.27;5.22;;;15.30;99.90;;;;;;5076307;28;20041;-74
2023/10/05 09:20:30;;;;;;;8.55;5.28;;;15.30;99.90;;;;;;5063701;27;20040;-74
2023/10/05 09:23:20;;;;;;;10.40;5.10;;;15.20;99.90;;;;;;5088319;28;20034;-74
2023/10/05 09:26:20;;;;;;;12.18;4.50;;;15.30;99.90;;;;;;5091627;27;20511;-74
2023/10/05 09:29:29;;;;;;;9.93;5.28;;;15.20;99.90;;;;;;5082384;28;20526;-75
2023/10/05 09:32:25;;;;;;;11.75;4.32;;;15.30;99.90;;;;;;5079364;28;20044;-74
2023/10/05 09:35:28;;;;;;;12.93;4.80;;;15.40;99.90;;;;;;5090476;27;20047;-75
2023/10/05 09:38:14;;;;;;;15.82;5.82;;;15.40;99.90;;;;;;5092677;28;20097;-75
2023/10/05 09:41:02;;;;;;;13.52;5.78;;;15.40;99.90;;;;;;5070310;28;20490;-75
2023/10/05 09:43:58;;;;;;;10.13;4.60;;;15.40;99.90;;;;;;5076552;27;20043;-74
2023/10/05 09:46:44;;;;;;;15.68;5.85;;;15.50;99.90;;;;;;5085508;28;20032;-74
2023/10/05 09:49:30;;;;;;;13.05;5.18;;;15.50;99.90;;;;;;5083749;27;20039;-74
2023/10/05 09:52:19;;;;;;;14.82;4.80;;;15.50;99.90;;;;;;5080978;28;20040;-74
2023/10/05 09:55:08;;;;;;;13.68;5.25;;;15.40;99.90;;;;;;5101504;27;20406;-74
2023/10/05 09:57:56;;;;;;;10.70;4.63;;;15.40;99.90;;;;;;5092673;28;20592;-74
2023/10/05 10:03:31;;;;;;;15.52;5.88;;;15.50;99.90;;;;;;5091329;27;20036;-74
2023/10/05 10:06:18;;;;;;;;;;;15.50;99.90;;;;;;5080863;28;20044;-74
2023/10/05 10:09:11;;;;;;;13.52;5.10;;;15.50;99.90;;;;;;5113700;27;19911;-74
2023/10/05 10:12:00;;;;;;;12.13;5.32;;;15.50;99.90;;;;;;5066128;28;20461;-74
2023/10/05 10:14:50;;;;;;;10.82;4.53;;;15.60;99.90;;;;;;5097793;27;20050;-74
2023/10/05 10:17:36;;;;;;;12.02;4.90;;;15.60;99.90;;;;;;5098816;27;20074;-74
2023/10/05 10:20:37;;;;;;;11.38;5.00;;;15.60;99.90;;;;;;5080233;28;20036;-74
2023/10/05 10:23:35;;;;;;;11.75;4.93;;;15.70;99.90;;;;;;5094932;27;20031;-74
2023/10/05 10:26:24;;;;;;;14.02;5.78;;;15.70;99.90;;;;;;5080647;28;20127;-74
2023/10/05 10:29:16;;;;;;;11.10;4.53;;;15.80;99.90;;;;;;5062029;28;20035;-74
2023/10/05 10:32:18;;;;;;;10.90;4.45;;;15.80;99.90;;;;;;5071536;28;20055;-74
2023/10/05 10:35:12;;;;;;;12.68;4.63;;;15.80;99.90;;;;;;5067345;28;20440;-74
2023/10/05 10:38:03;;;;;;;9.38;3.90;;;15.90;99.90;;;;;;5061051;28;20024;-74
2023/10/05 10:41:07;;;;;;;10.45;4.00;;;15.90;99.90;;;;;;5078334;27;20039;-74
2023/10/05 10:43:53;;;;;;;14.90;4.18;;;16.00;99.90;;;;;;5087103;28;20039;-74
2023/10/05 10:46:39;;;;;;;11.18;4.25;;;16.00;99.90;;;;;;5066182;28;20378;-74
2023/10/05 10:49:26;;;;;;;12.18;3.75;;;16.00;99.90;;;;;;5072925;28;20047;-75
2023/10/05 10:52:12;;;;;;;10.88;3.90;;;16.10;99.90;;;;;;5086971;27;20068;-74
2023/10/05 10:54:58;;;;;;;14.98;3.88;;;16.10;99.90;;;;;;5082876;28;20403;-74
2023/10/05 10:57:47;;;;;;;9.10;3.20;;;16.10;99.90;;;;;;5076140;28;20043;-74
2023/10/05 11:03:30;;;;;;;15.45;3.72;;;16.00;99.90;;;;;;5086701;28;20043;-74
2023/10/05 11:06:16;;;;;;;12.88;3.08;;;16.00;99.90;;;;;;5065028;28;20044;-74
2023/10/05 11:09:09;;;;;;;11.70;3.10;;;15.90;99.90;;;;;;5075054;28;20044;-74
2023/10/05 11:12:11;;;;;;;11.05;2.90;;;15.90;99.90;;;;;;5083669;27;20412;-74
2023/10/05 11:15:08;;;;;;;8.48;2.75;;;15.90;99.90;;;;;;5086497;28;20107;-74
2023/10/05 11:17:58;;;;;;;16.95;3.53;;;15.80;99.90;;;;;;5081191;27;20035;-74
2023/10/05 11:20:52;;;;;;;10.35;3.40;;;15.80;99.90;;;;;;5063554;28;20040;-74
2023/10/05 11:23:58;;;;;;;11.63;3.70;;;15.80;99.90;;;;;;5069776;28;20039;-74
2023/10/05 11:29:55;;;;;;;9.52;3.58;;;15.90;99.90;;;;;;5088137;27;20535;-77
2023/10/05 11:32:46;;;;;;;12.90;3.33;;;15.90;99.90;;;;;;5083069;28;20036;-77
2023/10/05 11:35:42;;;;;;;10.77;3.10;;;15.90;99.90;;;;;;5072411;27;20459;-77
2023/10/05 11:38:28;;;;;;;13.65;2.92;;;15.90;99.90;;;;;;5065750;28;20109;-77
2023/10/05 11:41:23;;;;;;;9.10;2.85;;;15.90;99.90;;;;;;5075072;28;20150;-77
2023/10/05 11:44:12;;;;;;;11.30;2.78;;;15.90;99.90;;;;;;5055676;28;20040;-77
2023/10/05 11:46:58;;;;;;;14.00;3.70;;;15.90;99.90;;;;;;5079452;28;20047;-75
2023/10/05 11:49:45;;;;;;;8.55;2.70;;;15.90;99.90;;;;;;5061903;28;20452;-75
2023/10/05 11:52:31;;;;;;;14.02;3.33;;;15.90;99.90;;;;;;5093841;28;20044;-75
2023/10/05 11:55:17;;;;;;;11.75;3.03;;;15.90;99.90;;;;;;5112978;28;20421;-75
2023/10/05 11:58:03;;;;;;;15.93;3.60;;;15.90;99.90;;;;;;5096613;28;20499;-75
2023/10/05 12:00:51;;;;;;;7.72;2.42;;;15.90;99.90;;;;;;5080987;28;20095;-74
2023/10/05 12:03:44;;;;;;;12.50;3.28;;;15.90;99.90;;;;;;5074434;28;20036;-77
2023/10/05 12:06:32;;;;;;;9.57;2.90;;;15.90;99.90;;;;;;5076098;28;20047;-77
2023/10/05 12:09:30;;;;;;;11.45;3.10;;;16.00;99.90;;;;;;5070426;28;20127;-77
2023/10/05 12:12:18;;;;;;;11.38;3.20;;;16.00;99.90;;;;;;5061767;28;20031;-77
2023/10/05 12:15:12;;;;;;;10.02;2.78;;;16.00;99.90;;;;;;5076206;28;20677;-77
2023/10/05 12:17:58;;;;;;;9.02;3.00;;;16.10;99.90;;;;;;5072990;28;20044;-77
2023/10/05 12:20:46;;;;;;;11.13;2.60;;;16.10;99.90;;;;;;5091219;28;20043;-74
2023/10/05 12:23:33;;;;;;;11.77;2.92;;;16.10;99.90;;;;;;5097673;28;20141;-74
2023/10/05 12:26:21;;;;;;;;;;;16.10;99.90;;;;;;5079115;28;20107;-74
2023/10/05 12:29:12;;;;;;;10.85;2.88;;;16.10;99.90;;;;;;5108096;27;19918;-74
2023/10/05 12:32:06;;;;;;;12.68;2.65;;;16.10;99.90;;;;;;5087761;28;20122;-74
2023/10/05 12:34:52;;;;;;;10.25;3.72;;;16.10;99.90;;;;;;5084537;27;20076;-74
2023/10/05 12:37:44;;;;;;;10.05;2.78;;;16.10;99.90;;;;;;5083760;28;20039;-74
2023/10/05 12:40:40;;;;;;;8.10;2.95;;;16.10;99.90;;;;;;5089465;27;20386;-77
2023/10/05 12:43:26;;;;;;;10.00;3.20;;;16.10;99.90;;;;;;5087764;28;20340;-77
2023/10/05 12:46:13;;;;;;;7.70;3.15;;;16.10;99.90;;;;;;5088678;27;20039;-77
2023/10/05 12:49:07;;;;;;;12.93;2.85;;;16.00;99.90;;;;;;5094664;28;20039;-76
2023/10/05 12:51:53;;;;;;;10.77;2.65;;;16.00;99.90;;;;;;5072585;28;20046;-74
2023/10/05 12:54:42;;;;;;;7.00;2.60;;;16.10;99.90;;;;;;5076996;27;20430;-74
2023/10/05 12:57:30;;;;;;;9.63;2.47;;;16.10;99.90;;;;;;5082377;28;20039;-75
2023/10/05 13:00:21;;;;;;;9.55;2.70;;;16.10;99.90;;;;;;5087410;27;20828;-74
2023/10/05 13:03:11;;;;;;;9.18;2.83;;;16.10;99.90;;;;;;5091879;28;20048;-77
2023/10/05 13:06:00;;;;;;;14.57;2.60;;;16.10;99.90;;;;;;5087917;27;20040;-77
2023/10/05 13:08:45;;;;;;;12.00;2.88;;;16.10;99.90;;;;;;5073682;28;20130;-77
2023/10/05 13:11:31;;;;;;;6.70;2.40;;;16.10;99.90;;;;;;5083642;28;20067;-77
2023/10/05 13:14:19;;;;;;;10.25;3.13;;;16.00;99.90;;;;;;5060418;27;20134;-77
2023/10/05 13:17:11;;;;;;;8.43;2.20;;;16.10;99.90;;;;;;5099443;28;20038;-77
2023/10/05 13:19:58;;;;;;;10.75;2.63;;;16.00;99.90;;;;;;5055523;28;20086;-77
2023/10/05 13:22:44;;;;;;;9.32;2.85;;;16.10;99.90;;;;;;5100795;28;20039;-77
2023/10/05 13:25:33;;;;;;;11.02;2.80;;;16.00;99.90;;;;;;5073369;27;20043;-75
2023/10/05 13:28:20;;;;;;;8.57;2.40;;;16.00;99.90;;;;;;5080151;28;20035;-77
2023/10/05 13:31:07;;;;;;;9.65;2.63;;;16.00;99.90;;;;;;5069200;28;20470;-77
2023/10/05 13:33:59;;;;;;;7.13;2.60;;;16.00;99.90;;;;;;5064430;27;20039;-77
2023/10/05 13:36:54;;;;;;;10.00;2.90;;;16.00;99.90;;;;;;5070415;28;20338;-75
2023/10/05 13:39:44;;;;;;;9.15;2.85;;;16.00;99.90;;;;;;5086565;27;20046;-75
2023/10/05 13:42:35;;;;;;;6.25;2.20;;;16.00;99.90;;;;;;5086773;28;20084;-74
2023/10/05 13:45:21;;;;;;;8.02;2.88;;;16.00;99.90;;;;;;5113966;27;20105;-75
2023/10/05 13:48:09;;;;;;;11.70;2.90;;;16.00;99.90;;;;;;5099080;28;20067;-74
2023/10/05 13:50:56;;;;;;;12.65;3.15;;;16.00;99.90;;;;;;5069375;27;20088;-74
2023/10/05 13:53:46;;;;;;;12.05;3.38;;;16.00;99.90;;;;;;5079525;27;20452;-75
2023/10/05 13:56:32;;;;;;;9.55;2.80;;;16.00;99.90;;;;;;5086288;28;20062;-74
2023/10/05 13:59:21;;;;;;;7.85;2.58;;;16.00;99.90;;;;;;5098845;27;20034;-74
2023/10/05 14:02:08;;;;;;;9.60;2.70;;;16.00;99.90;;;;;;5083465;28;20527;-75
2023/10/05 14:04:53;;;;;;;10.23;2.60;;;15.90;99.90;;;;;;5114815;27;20036;-75
2023/10/05 14:07:39;;;;;;;9.20;2.78;;;16.00;99.90;;;;;;5077661;28;20061;-75
2023/10/05 14:10:26;;;;;;;13.90;3.50;;;16.00;99.90;;;;;;5079077;28;20054;-75
2023/10/05 14:13:16;;;;;;;8.85;2.58;;;16.00;99.90;;;;;;5077317;27;20044;-75
2023/10/05 14:16:02;;;;;;;10.18;2.72;;;16.00;99.90;;;;;;5075962;28;20358;-75
2023/10/05 14:18:48;;;;;;;14.10;2.75;;;16.00;99.90;;;;;;5099072;27;20041;-75
2023/10/05 14:21:34;;;;;;;11.80;3.28;;;15.80;99.90;;;;;;5079970;28;20036;-77
2023/10/05 14:24:21;;;;;;;10.88;3.47;;;15.90;99.90;;;;;;5093202;28;20096;-76
2023/10/05 14:27:07;;;;;;;13.68;3.72;;;15.80;99.90;;;;;;5097787;27;20111;-77
2023/10/05 14:29:53;;;;;;;11.02;4.03;;;15.40;99.90;;;;;;5082370;28;20504;-77
2023/10/05 14:32:40;;;;;;;11.13;4.47;;;15.10;99.90;;;;;;5074878;27;20379;-76
2023/10/05 14:35:27;;;;;;;6.80;3.80;;;15.10;99.90;;;;;;5082095;28;20055;-77
2023/10/05 14:38:17;;;;;;;9.93;3.20;;;14.90;99.90;;;;;;5085126;28;20281;-77
2023/10/05 14:41:03;;;;;;;7.68;2.35;;;14.70;99.90;;;;;;5078529;28;20088;-77
2023/10/05 14:43:49;;;;;;;4.72;2.10;;;14.50;99.90;;;;;;5077200;28;20494;-77
2023/10/05 14:46:35;;;;;;;6.93;2.55;;;14.50;99.90;;;;;;5073516;27;20039;-77
2023/10/05 14:49:21;;;;;;;6.03;2.20;;;14.50;99.90;;;;;;5083695;28;20119;-77
2023/10/05 14:52:07;;;;;;;5.20;2.03;;;14.40;99.90;;;;;;5098113;27;20364;-77
2023/10/05 14:54:53;;;;;;;5.45;2.47;;;14.40;99.90;;;;;;5084673;28;20036;-77
2023/10/05 14:57:40;;;;;;;5.30;2.25;;;14.50;99.90;;;;;;5067731;28;20440;-77